createdAt,value
2024-05-09T00:00:36.354Z,2.33
2024-05-09T00:03:10.960Z,1.33
2024-05-09T00:05:40.944Z,1.80
2024-05-09T00:08:09.330Z,1.50
2024-05-09T00:10:38.588Z,1.88
2024-05-09T00:13:07.588Z,1.83
2024-05-09T00:15:35.174Z,1.52
2024-05-09T00:18:02.995Z,1.23
2024-05-09T00:20:37.447Z,1.23
2024-05-09T00:23:07.678Z,1.67
2024-05-09T00:25:34.894Z,2.00
2024-05-09T00:28:01.680Z,1.73
2024-05-09T00:30:34.240Z,1.45
2024-05-09T00:33:04.627Z,2.45
2024-05-09T00:35:32.050Z,1.33
2024-05-09T00:37:58.669Z,1.75
2024-05-09T00:40:35.346Z,1.65
2024-05-09T00:43:06.610Z,2.10
2024-05-09T00:45:36.286Z,1.30
2024-05-09T00:48:06.485Z,1.98
2024-05-09T00:50:37.484Z,1.48
2024-05-09T00:53:06.695Z,2.20
2024-05-09T00:55:36.385Z,1.42
2024-05-09T00:58:04.345Z,2.10
2024-05-09T01:00:37.951Z,1.02
2024-05-09T01:03:07.352Z,1.05
2024-05-09T01:05:34.909Z,1.20
2024-05-09T01:08:02.713Z,1.55
2024-05-09T01:10:34.350Z,1.65
2024-05-09T01:13:03.539Z,1.63
2024-05-09T01:15:30.155Z,1.02
2024-05-09T01:17:57.959Z,1.15
2024-05-09T01:20:36.444Z,1.45
2024-05-09T01:23:08.821Z,2.22
2024-05-09T01:25:35.635Z,2.20
2024-05-09T01:28:02.325Z,1.88
2024-05-09T01:30:34.598Z,1.88
2024-05-09T01:33:04.180Z,1.40
2024-05-09T01:35:31.196Z,1.50
2024-05-09T01:37:57.844Z,1.23
2024-05-09T01:40:33.523Z,1.90
2024-05-09T01:43:04.730Z,2.05
2024-05-09T01:45:31.442Z,1.55
2024-05-09T01:47:58.236Z,1.98
2024-05-09T01:50:36.254Z,1.38
2024-05-09T01:53:06.533Z,1.60
2024-05-09T01:55:33.087Z,1.65
2024-05-09T01:57:59.574Z,1.63
2024-05-09T02:00:36.874Z,1.20
2024-05-09T02:03:14.421Z,1.15
2024-05-09T02:05:44.564Z,1.33
2024-05-09T02:08:23.899Z,1.27
2024-05-09T02:10:50.908Z,1.65
2024-05-09T02:13:17.838Z,1.63
2024-05-09T02:18:11.478Z,1.23
2024-05-09T02:20:39.399Z,2.05
2024-05-09T02:23:06.917Z,1.33
2024-05-09T02:25:33.901Z,2.67
2024-05-09T02:28:00.591Z,1.63
2024-05-09T02:30:37.765Z,1.52
2024-05-09T02:33:08.318Z,1.88
2024-05-09T02:35:35.725Z,1.55
2024-05-09T02:38:02.415Z,1.63
2024-05-09T02:40:36.216Z,1.52
2024-05-09T02:43:05.844Z,1.88
2024-05-09T02:45:32.566Z,0.95
2024-05-09T02:47:59.318Z,1.92
2024-05-09T02:50:33.931Z,1.77
2024-05-09T02:53:05.301Z,2.20
2024-05-09T02:55:32.190Z,1.17
2024-05-09T02:57:58.703Z,1.92
2024-05-09T03:00:34.301Z,1.10
2024-05-09T03:03:06.131Z,1.60
2024-05-09T03:05:33.278Z,1.98
2024-05-09T03:07:59.878Z,2.05
2024-05-09T03:10:28.999Z,1.58
2024-05-09T03:13:05.005Z,1.65
2024-05-09T03:15:32.864Z,1.80
2024-05-09T03:18:00.243Z,2.00
2024-05-09T03:20:33.037Z,1.92
2024-05-09T03:23:01.981Z,2.28
2024-05-09T03:25:28.547Z,1.50
2024-05-09T03:27:55.017Z,1.52
2024-05-09T03:30:31.001Z,1.50
2024-05-09T03:33:10.229Z,1.50
2024-05-09T03:35:37.150Z,1.85
2024-05-09T03:38:03.915Z,1.55
2024-05-09T03:40:31.170Z,1.40
2024-05-09T03:42:58.710Z,1.45
2024-05-09T03:45:25.263Z,1.25
2024-05-09T03:47:52.103Z,1.50
2024-05-09T03:50:26.381Z,1.05
2024-05-09T03:53:00.261Z,1.73
2024-05-09T03:55:26.971Z,1.83
2024-05-09T03:57:53.480Z,1.77
2024-05-09T04:00:30.061Z,1.60
2024-05-09T04:03:01.911Z,1.45
2024-05-09T04:05:30.719Z,1.73
2024-05-09T04:07:57.550Z,1.52
2024-05-09T04:10:30.927Z,2.10
2024-05-09T04:13:00.053Z,1.45
2024-05-09T04:15:26.550Z,2.15
2024-05-09T04:17:53.347Z,1.52
2024-05-09T04:20:29.294Z,1.85
2024-05-09T04:23:04.053Z,1.27
2024-05-09T04:25:32.083Z,2.13
2024-05-09T04:27:58.609Z,1.92
2024-05-09T04:30:34.501Z,2.10
2024-05-09T04:33:05.880Z,1.85
2024-05-09T04:35:32.710Z,1.63
2024-05-09T04:37:59.251Z,2.05
2024-05-09T04:40:32.997Z,1.67
2024-05-09T04:43:02.339Z,2.17
2024-05-09T04:45:28.881Z,1.95
2024-05-09T04:47:55.579Z,1.92
2024-05-09T04:50:30.132Z,2.50
2024-05-09T04:53:03.175Z,1.52
2024-05-09T04:55:29.844Z,2.10
2024-05-09T04:57:56.359Z,1.83
2024-05-09T05:00:32.283Z,2.20
2024-05-09T05:03:06.805Z,1.80
2024-05-09T05:05:34.536Z,1.73
2024-05-09T05:10:33.874Z,1.48
2024-05-09T05:13:17.208Z,2.05
2024-05-09T05:15:46.099Z,1.60
2024-05-09T05:18:12.706Z,1.80
2024-05-09T05:20:39.291Z,2.05
2024-05-09T05:23:12.404Z,2.10
2024-05-09T05:28:06.082Z,2.13
2024-05-09T05:30:34.679Z,3.10
2024-05-09T05:33:01.933Z,1.50
2024-05-09T05:35:28.805Z,2.58
2024-05-09T05:40:28.609Z,1.40
2024-05-09T05:43:03.202Z,2.58
2024-05-09T05:45:29.686Z,1.95
2024-05-09T05:47:56.509Z,2.38
2024-05-09T05:50:28.083Z,2.65
2024-05-09T05:53:01.998Z,2.17
2024-05-09T05:55:28.583Z,3.00
2024-05-09T05:57:55.071Z,3.13
2024-05-09T06:00:29.705Z,2.60
2024-05-09T06:03:04.412Z,1.80
2024-05-09T06:05:31.093Z,2.38
2024-05-09T06:07:57.631Z,2.60
2024-05-09T06:10:29.668Z,2.55
2024-05-09T06:13:01.461Z,2.00
2024-05-09T06:15:28.043Z,1.90
2024-05-09T06:17:54.732Z,2.40
2024-05-09T06:20:31.243Z,2.03
2024-05-09T06:23:03.091Z,1.90
2024-05-09T06:25:29.752Z,2.60
2024-05-09T06:27:56.218Z,1.98
2024-05-09T06:30:30.080Z,1.83
2024-05-09T06:33:05.195Z,2.45
2024-05-09T06:35:32.641Z,3.17
2024-05-09T06:37:59.329Z,2.25
2024-05-09T06:43:04.500Z,2.00
2024-05-09T06:45:30.970Z,1.88
2024-05-09T06:47:57.549Z,2.10
2024-05-09T06:50:28.273Z,2.63
2024-05-09T06:52:58.292Z,2.28
2024-05-09T06:55:24.857Z,2.00
2024-05-09T06:57:51.321Z,2.30
2024-05-09T07:00:26.806Z,1.98
2024-05-09T07:02:58.413Z,2.05
2024-05-09T07:05:26.254Z,2.17
2024-05-09T07:07:52.941Z,2.45
2024-05-09T07:12:59.078Z,1.92
2024-05-09T07:15:25.530Z,3.00
2024-05-09T07:17:52.251Z,1.80
2024-05-09T07:20:27.528Z,2.00
2024-05-09T07:23:00.428Z,1.60
2024-05-09T07:27:53.313Z,1.90
2024-05-09T07:32:59.537Z,1.65
2024-05-09T07:35:26.333Z,1.52
2024-05-09T07:37:52.979Z,1.85
2024-05-09T07:40:28.576Z,1.73
2024-05-09T07:43:06.571Z,1.90
2024-05-09T07:52:23.309Z,2.13
2024-05-09T07:53:38.442Z,2.50
2024-05-09T07:56:06.411Z,1.77
2024-05-09T07:58:33.063Z,1.70
2024-05-09T08:00:59.697Z,1.90
2024-05-09T08:03:26.286Z,1.73
2024-05-09T08:05:54.319Z,2.00
2024-05-09T08:08:20.907Z,1.75
2024-05-09T08:10:47.780Z,1.70
2024-05-09T08:13:14.402Z,1.88
2024-05-09T08:15:41.260Z,1.98
2024-05-09T08:18:11.469Z,1.60
2024-05-09T08:20:38.842Z,2.13
2024-05-09T08:23:05.804Z,1.70
2024-05-09T08:25:32.582Z,1.50
2024-05-09T08:27:59.105Z,1.70
2024-05-09T08:30:32.812Z,1.60
2024-05-09T08:33:03.602Z,1.65
2024-05-09T08:35:30.167Z,1.73
2024-05-09T08:37:56.756Z,1.55
2024-05-09T08:40:30.736Z,1.30
2024-05-09T08:43:03.007Z,2.13
2024-05-09T08:45:31.127Z,1.65
2024-05-09T08:48:01.285Z,1.52
2024-05-09T08:50:36.056Z,1.42
2024-05-09T08:53:06.725Z,1.60
2024-05-09T08:55:33.387Z,1.30
2024-05-09T08:58:02.322Z,1.30
2024-05-09T09:00:36.771Z,1.40
2024-05-09T09:03:09.079Z,1.40
2024-05-09T09:05:38.421Z,1.45
2024-05-09T09:08:08.153Z,1.50
2024-05-09T09:10:35.340Z,1.30
2024-05-09T09:13:04.215Z,1.20
2024-05-09T09:15:31.229Z,1.55
2024-05-09T09:17:59.300Z,1.33
2024-05-09T09:20:36.374Z,1.40
2024-05-09T09:23:04.323Z,1.17
2024-05-09T09:25:31.854Z,1.40
2024-05-09T09:27:58.813Z,1.45
2024-05-09T09:30:36.197Z,1.20
2024-05-09T09:33:05.841Z,1.13
2024-05-09T09:35:32.862Z,1.30
2024-05-09T09:38:02.705Z,1.55
2024-05-09T09:40:37.101Z,1.45
2024-05-09T09:43:13.961Z,1.17
2024-05-09T09:45:43.222Z,1.10
2024-05-09T09:48:10.441Z,1.35
2024-05-09T09:50:37.662Z,1.20
2024-05-09T09:53:06.979Z,1.13
2024-05-09T09:55:33.576Z,1.00
2024-05-09T09:58:00.681Z,1.23
2024-05-09T10:00:32.637Z,1.23
2024-05-09T10:03:00.585Z,1.10
2024-05-09T10:05:28.253Z,1.13
2024-05-09T10:07:56.465Z,1.38
2024-05-09T10:10:30.430Z,1.23
2024-05-09T10:13:08.883Z,1.17
2024-05-09T10:15:46.009Z,1.50
2024-05-09T10:18:13.025Z,1.17
2024-05-09T10:20:44.279Z,1.45
2024-05-09T10:23:27.749Z,1.10
2024-05-09T10:26:05.177Z,1.10
2024-05-09T10:28:35.087Z,1.10
2024-05-09T10:31:13.401Z,1.15
2024-05-09T10:33:46.578Z,1.02
2024-05-09T10:36:23.680Z,1.30
2024-05-09T10:38:55.444Z,1.10
2024-05-09T10:41:23.397Z,1.83
2024-05-09T10:43:50.180Z,1.35
2024-05-09T10:46:19.137Z,1.52
2024-05-09T10:48:47.372Z,1.00
2024-05-09T10:51:14.162Z,1.10
2024-05-09T10:53:48.381Z,1.13
2024-05-09T10:56:15.333Z,0.98
2024-05-09T10:58:42.196Z,1.45
2024-05-09T11:01:09.817Z,1.50
2024-05-09T11:03:37.916Z,1.13
2024-05-09T11:06:05.556Z,1.17
2024-05-09T11:08:32.935Z,1.15
2024-05-09T11:11:00.252Z,1.10
2024-05-09T11:13:30.830Z,1.15
2024-05-09T11:15:59.214Z,1.20
2024-05-09T11:18:29.774Z,1.00
2024-05-09T11:20:59.007Z,1.38
2024-05-09T11:23:30.183Z,1.25
2024-05-09T11:25:58.567Z,1.40
2024-05-09T11:28:28.292Z,1.13
2024-05-09T11:31:06.516Z,1.00
2024-05-09T11:33:37.405Z,1.55
2024-05-09T11:36:04.359Z,1.55
2024-05-09T11:38:31.272Z,1.15
2024-05-09T11:40:57.793Z,1.02
2024-05-09T11:43:24.424Z,1.30
2024-05-09T11:45:51.193Z,1.20
2024-05-09T11:48:17.843Z,1.13
2024-05-09T11:50:44.469Z,1.33
2024-05-09T11:53:12.113Z,1.80
2024-05-09T11:55:38.620Z,0.98
2024-05-09T11:58:05.272Z,1.20
2024-05-09T12:00:36.809Z,1.48
2024-05-09T12:03:05.682Z,1.20
2024-05-09T12:05:33.740Z,2.20
2024-05-09T12:08:01.088Z,1.40
2024-05-09T12:10:33.201Z,1.27
2024-05-09T12:13:02.833Z,1.20
2024-05-09T12:15:30.047Z,1.38
2024-05-09T12:17:59.043Z,1.17
2024-05-09T12:20:35.449Z,1.38
2024-05-09T12:23:05.083Z,0.95
2024-05-09T12:25:31.619Z,1.30
2024-05-09T12:27:58.336Z,1.02
2024-05-09T12:30:33.151Z,0.95
2024-05-09T12:33:04.678Z,1.13
2024-05-09T12:35:31.556Z,1.00
2024-05-09T12:37:58.036Z,1.50
2024-05-09T12:40:34.179Z,0.98
2024-05-09T12:43:05.004Z,1.00
2024-05-09T12:45:31.964Z,1.17
2024-05-09T12:47:58.793Z,1.13
2024-05-09T12:50:31.927Z,1.23
2024-05-09T12:53:00.962Z,1.48
2024-05-09T12:55:28.525Z,1.30
2024-05-09T12:57:57.243Z,1.00
2024-05-09T13:00:28.360Z,1.33
2024-05-09T13:03:00.966Z,0.95
2024-05-09T13:05:28.067Z,1.40
2024-05-09T13:07:56.721Z,1.08
2024-05-09T13:10:31.118Z,1.05
2024-05-09T13:13:00.173Z,1.10
2024-05-09T13:15:27.242Z,1.00
2024-05-09T13:17:55.783Z,1.23
2024-05-09T13:20:31.181Z,1.00
2024-05-09T13:23:01.754Z,1.83
2024-05-09T13:25:28.415Z,1.35
2024-05-09T13:27:55.363Z,1.20
2024-05-09T13:30:29.480Z,1.13
2024-05-09T13:33:05.193Z,1.00
2024-05-09T13:35:32.297Z,1.20
2024-05-09T13:37:58.891Z,1.13
2024-05-09T13:40:32.336Z,1.17
2024-05-09T13:43:01.976Z,1.38
2024-05-09T13:45:28.686Z,1.00
2024-05-09T13:47:55.489Z,1.20
2024-05-09T13:50:31.013Z,1.00
2024-05-09T13:53:01.591Z,1.80
2024-05-09T13:55:28.172Z,1.00
2024-05-09T13:57:55.320Z,1.13
2024-05-09T14:00:37.450Z,0.90
2024-05-09T14:03:08.575Z,1.10
2024-05-09T14:05:35.466Z,1.23
2024-05-09T14:08:02.199Z,0.90
2024-05-09T14:10:31.139Z,1.02
2024-05-09T14:12:58.723Z,1.13
2024-05-09T14:15:25.323Z,0.80
2024-05-09T14:17:51.956Z,1.35
2024-05-09T14:20:28.257Z,0.88
2024-05-09T14:22:58.030Z,1.48
2024-05-09T14:25:26.449Z,0.93
2024-05-09T14:27:53.364Z,0.80
2024-05-09T14:30:29.706Z,0.95
2024-05-09T14:33:01.429Z,0.85
2024-05-09T14:35:28.135Z,1.08
2024-05-09T14:37:54.793Z,0.95
2024-05-09T14:40:30.938Z,1.45
2024-05-09T14:43:06.163Z,1.10
2024-05-09T14:45:32.804Z,1.30
2024-05-09T14:47:59.648Z,1.50
2024-05-09T14:50:34.657Z,1.08
2024-05-09T14:53:05.834Z,1.15
2024-05-09T14:55:35.175Z,1.05
2024-05-09T14:58:02.623Z,1.00
2024-05-09T15:00:33.511Z,0.82
2024-05-09T15:03:03.049Z,0.82
2024-05-09T15:05:30.075Z,0.82
2024-05-09T15:07:57.621Z,1.00
2024-05-09T15:10:33.339Z,0.82
2024-05-09T15:13:02.327Z,0.88
2024-05-09T15:15:29.004Z,1.23
2024-05-09T15:17:55.860Z,0.90
2024-05-09T15:20:31.018Z,1.00
2024-05-09T15:23:01.790Z,1.25
2024-05-09T15:25:28.369Z,1.10
2024-05-09T15:27:55.083Z,0.68
2024-05-09T15:30:29.918Z,1.00
2024-05-09T15:32:58.992Z,0.75
2024-05-09T15:35:25.518Z,0.82
2024-05-09T15:37:52.154Z,0.75
2024-05-09T15:40:26.585Z,1.15
2024-05-09T15:43:02.321Z,0.70
2024-05-09T15:45:29.374Z,1.13
2024-05-09T15:47:56.991Z,1.02
2024-05-09T15:50:35.112Z,0.77
2024-05-09T15:53:05.889Z,0.90
2024-05-09T15:55:33.927Z,1.02
2024-05-09T15:58:02.263Z,0.82
2024-05-09T16:00:37.199Z,0.85
2024-05-09T16:03:07.528Z,0.90
2024-05-09T16:05:34.474Z,1.15
2024-05-09T16:08:01.294Z,0.77
2024-05-09T16:10:32.632Z,0.90
2024-05-09T16:13:01.041Z,1.23
2024-05-09T16:15:27.830Z,0.90
2024-05-09T16:17:55.035Z,0.90
2024-05-09T16:20:33.933Z,0.70
2024-05-09T16:23:05.998Z,0.80
2024-05-09T16:25:32.603Z,0.82
2024-05-09T16:27:59.395Z,0.88
2024-05-09T16:30:32.152Z,0.70
2024-05-09T16:33:02.688Z,0.93
2024-05-09T16:35:29.495Z,1.08
2024-05-09T16:37:56.155Z,1.60
2024-05-09T16:40:30.263Z,1.33
2024-05-09T16:43:04.551Z,0.88
2024-05-09T16:45:31.454Z,1.10
2024-05-09T16:47:59.656Z,1.00
2024-05-09T16:50:32.207Z,0.90
2024-05-09T16:53:00.895Z,0.93
2024-05-09T16:55:27.742Z,1.13
2024-05-09T16:57:55.343Z,0.95
2024-05-09T17:00:31.783Z,1.40
2024-05-09T17:03:07.312Z,0.90
2024-05-09T17:05:34.639Z,2.10
2024-05-09T17:08:01.581Z,1.23
2024-05-09T17:10:32.856Z,0.82
2024-05-09T17:13:01.876Z,1.08
2024-05-09T17:15:28.580Z,1.05
2024-05-09T17:17:55.768Z,1.27
2024-05-09T17:20:29.242Z,2.17
2024-05-09T17:23:00.266Z,1.15
2024-05-09T17:25:26.830Z,0.80
2024-05-09T17:27:54.150Z,0.98
2024-05-09T17:30:28.811Z,0.98
2024-05-09T17:33:01.350Z,1.00
2024-05-09T17:35:28.144Z,1.20
2024-05-09T17:37:54.792Z,1.42
2024-05-09T17:40:30.111Z,0.90
2024-05-09T17:43:00.080Z,0.82
2024-05-09T17:45:26.711Z,1.05
2024-05-09T17:47:53.578Z,0.93
2024-05-09T17:50:27.438Z,0.80
2024-05-09T17:53:00.464Z,1.15
2024-05-09T17:55:27.200Z,1.10
2024-05-09T17:57:53.869Z,1.15
2024-05-09T18:00:29.035Z,0.90
2024-05-09T18:03:03.664Z,0.95
2024-05-09T18:05:30.411Z,1.17
2024-05-09T18:07:57.343Z,0.90
2024-05-09T18:10:30.091Z,1.60
2024-05-09T18:13:02.703Z,1.23
2024-05-09T18:15:29.322Z,1.08
2024-05-09T18:17:56.064Z,0.80
2024-05-09T18:20:32.726Z,1.10
2024-05-09T18:23:07.565Z,1.00
2024-05-09T18:25:34.438Z,1.00
2024-05-09T18:28:04.820Z,0.90
2024-05-09T18:30:35.075Z,0.98
2024-05-09T18:33:05.007Z,1.05
2024-05-09T18:35:32.685Z,0.80
2024-05-09T18:37:59.312Z,1.08
2024-05-09T18:40:32.970Z,1.00
2024-05-09T18:43:03.573Z,0.90
2024-05-09T18:45:30.701Z,1.10
2024-05-09T18:47:57.676Z,1.08
2024-05-09T18:50:32.506Z,1.02
2024-05-09T18:53:05.924Z,1.10
2024-05-09T18:55:32.516Z,1.13
2024-05-09T18:57:59.112Z,1.10
2024-05-09T19:00:33.866Z,0.93
2024-05-09T19:03:05.679Z,1.08
2024-05-09T19:05:33.220Z,1.17
2024-05-09T19:08:00.210Z,1.33
2024-05-09T19:10:33.635Z,1.02
2024-05-09T19:13:04.393Z,1.00
2024-05-09T19:15:33.818Z,1.20
2024-05-09T19:18:00.666Z,1.00
2024-05-09T19:20:33.153Z,0.93
2024-05-09T19:23:01.280Z,0.90
2024-05-09T19:25:27.854Z,1.35
2024-05-09T19:27:54.360Z,1.20
2024-05-09T19:30:29.797Z,1.27
2024-05-09T19:33:04.526Z,1.60
2024-05-09T19:35:31.216Z,1.20
2024-05-09T19:37:57.968Z,1.70
2024-05-09T19:40:30.455Z,1.30
2024-05-09T19:42:59.479Z,1.33
2024-05-09T19:45:26.072Z,1.50
2024-05-09T19:47:52.930Z,1.45
2024-05-09T19:50:26.385Z,1.27
2024-05-09T19:52:59.040Z,0.95
2024-05-09T19:55:25.854Z,1.52
2024-05-09T19:57:52.459Z,1.27
2024-05-09T20:00:26.019Z,1.40
2024-05-09T20:02:56.134Z,1.23
2024-05-09T20:05:23.566Z,1.35
2024-05-09T20:07:50.210Z,1.45
2024-05-09T20:10:23.500Z,1.17
2024-05-09T20:12:53.759Z,1.70
2024-05-09T20:15:20.443Z,1.92
2024-05-09T20:17:47.302Z,1.48
2024-05-09T20:20:24.468Z,1.30
2024-05-09T20:22:59.666Z,1.13
2024-05-09T20:25:26.194Z,1.23
2024-05-09T20:30:28.578Z,1.00
2024-05-09T20:32:58.820Z,1.40
2024-05-09T20:35:26.369Z,1.80
2024-05-09T20:37:52.858Z,1.02
2024-05-09T20:42:58.543Z,1.52
2024-05-09T20:45:25.088Z,1.52
2024-05-09T20:47:51.814Z,1.08
2024-05-09T20:50:27.893Z,1.48
2024-05-09T20:53:02.300Z,1.73
2024-05-09T20:55:30.034Z,1.40
2024-05-09T20:57:56.986Z,1.05
2024-05-09T21:00:30.283Z,1.30
2024-05-09T21:03:05.860Z,1.10
2024-05-09T21:05:32.949Z,1.48
2024-05-09T21:07:59.648Z,1.40
2024-05-09T21:10:27.099Z,1.52
2024-05-09T21:12:56.235Z,1.08
2024-05-09T21:15:23.058Z,1.63
2024-05-09T21:17:49.691Z,0.98
2024-05-09T21:20:20.489Z,1.17
2024-05-09T21:22:50.691Z,1.33
2024-05-09T21:25:17.311Z,1.17
2024-05-09T21:27:44.001Z,1.42
2024-05-09T21:30:16.053Z,1.27
2024-05-09T21:32:49.359Z,0.90
2024-05-09T21:35:17.475Z,1.40
2024-05-09T21:37:44.196Z,0.90
2024-05-09T21:40:16.944Z,1.15
2024-05-09T21:42:50.374Z,1.35
2024-05-09T21:47:43.691Z,1.15
2024-05-09T21:50:18.636Z,1.10
2024-05-09T21:52:49.740Z,1.05
2024-05-09T21:55:16.318Z,0.80
2024-05-09T21:57:42.922Z,1.15
2024-05-09T22:02:54.859Z,1.40
2024-05-09T22:05:21.451Z,1.27
2024-05-09T22:07:48.033Z,1.70
2024-05-09T22:10:22.716Z,0.85
2024-05-09T22:12:53.345Z,1.00
2024-05-09T22:15:20.511Z,1.00
2024-05-09T22:17:47.073Z,0.90
2024-05-09T22:22:54.819Z,0.80
2024-05-09T22:25:21.711Z,1.30
2024-05-09T22:27:48.350Z,1.00
2024-05-09T22:32:50.529Z,0.77
2024-05-09T22:35:17.216Z,1.20
2024-05-09T22:42:37.196Z,1.10
2024-05-09T22:45:03.823Z,1.27
2024-05-09T22:49:56.976Z,1.08
2024-05-09T22:52:23.498Z,1.25
2024-05-09T22:54:50.123Z,1.70
2024-05-09T22:59:43.087Z,0.95
2024-05-09T23:02:09.681Z,1.13
2024-05-09T23:07:04.529Z,0.98
2024-05-09T23:09:31.019Z,1.10
2024-05-09T23:11:57.557Z,1.08
2024-05-09T23:14:24.117Z,1.05
2024-05-09T23:16:50.658Z,1.00
2024-05-09T23:19:17.175Z,1.27
2024-05-09T23:21:43.742Z,1.40
2024-05-09T23:24:10.256Z,1.13
2024-05-09T23:26:42.428Z,1.02
2024-05-09T23:29:09.345Z,1.33
2024-05-09T23:31:35.845Z,1.15
2024-05-09T23:34:02.546Z,1.35
2024-05-09T23:36:29.285Z,1.63
2024-05-09T23:38:55.763Z,1.30
2024-05-09T23:41:22.701Z,1.10
2024-05-09T23:43:49.179Z,0.98
2024-05-09T23:46:15.707Z,0.95
2024-05-09T23:48:42.330Z,1.20
2024-05-09T23:51:08.842Z,1.33
2024-05-09T23:53:35.352Z,1.33
2024-05-09T23:56:01.859Z,0.98
2024-05-09T23:58:29.126Z,2.00
